Time;durP1;ratioP1;P1;durP2;ratioP2;P2;SDS_P1;SDS_P2;PMS_P1;PMS_P2;Temp;Humidity;BMP_temperature;BMP_pressure;BME280_temperature;BME280_humidity;BME280_pressure;Samples;Min_cycle;Max_cycle;Signal;HPM_P1;HPM_P2
2022/04/28 00:01:06;;;;;;;7.32;5.75;;;10.20;92.40;;;;;;7375852;19;20807;-48
2022/04/28 00:03:36;;;;;;;6.13;5.53;;;10.30;92.40;;;;;;7380008;19;20120;-47
2022/04/28 00:06:05;;;;;;;7.03;5.45;;;10.20;92.40;;;;;;7383776;19;20138;-47
2022/04/28 00:08:35;;;;;;;7.93;6.00;;;10.00;92.70;;;;;;7381430;19;20177;-47
2022/04/28 00:11:05;;;;;;;6.10;5.50;;;10.00;92.90;;;;;;7378727;19;20135;-47
2022/04/28 00:13:42;;;;;;;9.40;5.95;;;10.00;92.90;;;;;;7378046;19;20142;-47
2022/04/28 00:16:14;;;;;;;8.20;5.43;;;10.10;92.70;;;;;;7377707;19;20174;-48
2022/04/28 00:18:48;;;;;;;6.97;5.75;;;10.10;92.50;;;;;;7376603;19;20244;-47
2022/04/28 00:21:19;;;;;;;8.15;6.10;;;10.10;92.40;;;;;;7379323;19;20138;-47
2022/04/28 00:23:49;;;;;;;6.53;5.82;;;10.00;92.60;;;;;;7375135;19;20203;-48
2022/04/28 00:26:21;;;;;;;7.68;6.28;;;9.90;93.30;;;;;;7379774;19;20668;-48
2022/04/28 00:28:55;;;;;;;7.68;5.97;;;10.00;92.70;;;;;;7379812;19;20135;-47
2022/04/28 00:31:27;;;;;;;8.10;6.63;;;10.00;92.70;;;;;;7380228;19;20502;-48
2022/04/28 00:33:57;;;;;;;7.70;5.78;;;9.90;93.20;;;;;;7378464;19;20649;-47
2022/04/28 00:36:27;;;;;;;8.20;6.43;;;9.90;93.20;;;;;;7378005;19;20127;-47
2022/04/28 00:38:57;;;;;;;9.77;6.47;;;9.90;93.30;;;;;;7381438;19;20239;-47
2022/04/28 00:41:29;;;;;;;8.35;6.28;;;9.80;93.30;;;;;;7379201;19;20141;-47
2022/04/28 00:44:01;;;;;;;8.25;5.90;;;9.80;93.40;;;;;;7377504;19;20496;-47
2022/04/28 00:46:33;;;;;;;6.80;5.80;;;9.70;93.70;;;;;;7378023;19;20130;-48
2022/04/28 00:51:47;;;;;;;7.03;5.38;;;9.70;93.50;;;;;;7378828;19;20152;-47
2022/04/28 00:54:17;;;;;;;8.57;5.60;;;9.80;93.40;;;;;;7375482;19;20587;-47
2022/04/28 00:56:49;;;;;;;7.38;5.93;;;9.60;93.50;;;;;;7381066;19;20134;-47
2022/04/28 00:59:23;;;;;;;8.88;6.10;;;9.50;93.80;;;;;;7376495;19;20173;-49
2022/04/28 01:01:55;;;;;;;8.65;6.35;;;9.30;94.20;;;;;;7379983;19;20156;-50
2022/04/28 01:04:27;;;;;;;7.13;5.90;;;9.20;94.60;;;;;;7379538;19;20139;-49
2022/04/28 01:06:59;;;;;;;7.25;6.05;;;9.20;94.90;;;;;;7378132;19;20138;-48
2022/04/28 01:09:29;;;;;;;7.82;5.60;;;9.40;94.60;;;;;;7379639;19;20135;-48
2022/04/28 01:11:58;;;;;;;8.25;6.22;;;9.40;94.20;;;;;;7377678;19;20532;-47
2022/04/28 01:14:34;;;;;;;6.50;5.40;;;9.40;94.50;;;;;;7374375;19;20666;-47
2022/04/28 01:17:09;;;;;;;9.93;6.10;;;9.50;93.80;;;;;;7379154;19;20526;-48
2022/04/28 01:19:42;;;;;;;7.20;5.75;;;9.60;94.00;;;;;;7377303;19;20178;-48
2022/04/28 01:22:14;;;;;;;9.57;6.53;;;9.40;93.90;;;;;;7375270;19;20613;-48
2022/04/28 01:24:43;;;;;;;8.15;6.93;;;9.50;93.80;;;;;;7380917;19;20519;-48
2022/04/28 01:27:15;;;;;;;8.57;6.50;;;9.40;93.80;;;;;;7378650;19;20143;-48
2022/04/28 01:29:47;;;;;;;6.97;5.93;;;9.60;93.40;;;;;;7375836;19;20139;-48
2022/04/28 01:32:21;;;;;;;6.20;5.53;;;9.60;93.10;;;;;;7373817;19;20170;-47
2022/04/28 01:34:50;;;;;;;6.97;5.03;;;9.50;93.10;;;;;;7377688;19;20143;-48
2022/04/28 01:37:25;;;;;;;7.28;5.43;;;9.40;93.20;;;;;;7378103;19;20649;-48
2022/04/28 01:39:56;;;;;;;7.10;5.28;;;9.50;93.10;;;;;;7378122;19;20159;-48
2022/04/28 01:42:28;;;;;;;6.28;5.03;;;9.50;93.10;;;;;;7379404;19;20124;-48
2022/04/28 01:45:00;;;;;;;7.20;6.00;;;9.40;93.10;;;;;;7374795;19;20135;-48
2022/04/28 01:47:30;;;;;;;6.32;5.53;;;9.40;93.20;;;;;;7377924;19;20554;-48
2022/04/28 01:50:26;;;;;;;6.65;5.43;;;9.50;93.30;;;;;;7376036;19;20127;-48
2022/04/28 01:56:10;;;;;;;7.10;5.25;;;9.50;92.90;;;;;;7378892;19;20139;-48
2022/04/28 01:58:52;;;;;;;7.15;5.78;;;9.40;93.30;;;;;;7375880;19;20611;-48
2022/04/28 02:01:39;;;;;;;9.20;5.97;;;9.40;93.30;;;;;;7379075;19;20144;-48
2022/04/28 02:04:09;;;;;;;10.52;6.03;;;9.40;93.20;;;;;;7376409;19;20134;-48
2022/04/28 02:06:40;;;;;;;7.00;5.60;;;9.30;93.50;;;;;;7377297;19;20135;-48
2022/04/28 02:09:13;;;;;;;6.78;5.55;;;9.30;93.40;;;;;;7374888;19;20215;-48
2022/04/28 02:11:43;;;;;;;6.80;5.90;;;9.20;93.70;;;;;;7374990;19;20151;-49
2022/04/28 02:14:35;;;;;;;6.50;5.75;;;9.10;94.10;;;;;;7372240;19;20148;-48
2022/04/28 02:17:30;;;;;;;6.78;6.07;;;9.30;93.60;;;;;;7375144;19;20666;-48
2022/04/28 02:20:05;;;;;;;6.63;5.20;;;9.30;93.70;;;;;;7376323;19;20738;-50
2022/04/28 02:22:38;;;;;;;6.72;6.03;;;9.30;93.40;;;;;;7375083;19;20167;-48
2022/04/28 02:25:13;;;;;;;5.93;4.72;;;9.20;93.50;;;;;;7377238;19;20138;-48
2022/04/28 02:27:45;;;;;;;8.77;5.72;;;9.20;93.60;;;;;;7373803;19;20454;-48
2022/04/28 02:30:15;;;;;;;7.15;5.88;;;9.20;93.40;;;;;;7372212;19;20191;-48
2022/04/28 02:35:29;;;;;;;9.50;6.32;;;9.00;93.90;;;;;;7374185;19;20139;-48
2022/04/28 02:37:58;;;;;;;6.55;5.35;;;9.00;94.10;;;;;;7372381;19;20128;-50
2022/04/28 02:40:31;;;;;;;8.65;6.40;;;9.00;94.20;;;;;;7375937;19;20147;-48
2022/04/28 02:43:04;;;;;;;8.90;6.10;;;9.10;93.90;;;;;;7378186;19;20206;-48
2022/04/28 02:45:36;;;;;;;9.10;6.55;;;9.00;94.00;;;;;;7374351;19;20177;-48
2022/04/28 02:48:05;;;;;;;9.32;6.53;;;9.00;93.90;;;;;;7375618;19;20127;-48
2022/04/28 02:50:35;;;;;;;8.23;6.35;;;9.20;93.70;;;;;;7377934;19;20182;-50
2022/04/28 02:53:07;;;;;;;9.45;6.82;;;9.00;93.80;;;;;;7375308;19;20483;-48
2022/04/28 02:55:48;;;;;;;8.07;5.80;;;8.90;94.10;;;;;;7371597;19;20875;-48
2022/04/28 02:58:20;;;;;;;8.23;6.95;;;8.90;94.10;;;;;;7374152;19;20131;-48
2022/04/28 03:00:49;;;;;;;8.75;6.30;;;8.90;94.30;;;;;;7372770;19;20413;-48
2022/04/28 03:03:21;;;;;;;10.05;7.40;;;9.00;94.00;;;;;;7372073;19;20145;-48
2022/04/28 03:11:20;;;;;;;7.50;6.70;;;9.00;93.60;;;;;;7374501;19;20613;-48
2022/04/28 03:13:49;;;;;;;8.18;6.28;;;9.00;94.10;;;;;;7375199;19;20135;-48
2022/04/28 03:16:19;;;;;;;12.77;7.97;;;8.70;94.50;;;;;;7373008;19;20131;-49
2022/04/28 03:19:00;;;;;;;10.88;6.95;;;8.60;95.20;;;;;;7373926;19;20647;-48
2022/04/28 03:21:30;;;;;;;10.00;7.10;;;8.60;95.40;;;;;;7375169;19;20248;-48
2022/04/28 03:24:00;;;;;;;9.57;7.40;;;8.60;95.40;;;;;;7370863;19;20640;-48
2022/04/28 03:26:37;;;;;;;8.65;6.65;;;8.60;95.40;;;;;;7374758;19;20486;-48
2022/04/28 03:29:08;;;;;;;9.80;7.47;;;8.70;95.20;;;;;;7371569;19;20849;-48
2022/04/28 03:31:44;;;;;;;10.70;6.50;;;8.70;95.20;;;;;;7372383;19;20132;-48
2022/04/28 03:34:13;;;;;;;9.93;6.95;;;8.60;95.70;;;;;;7376314;19;20722;-48
2022/04/28 03:36:55;;;;;;;9.70;6.90;;;8.60;95.50;;;;;;7381274;19;20478;-50
2022/04/28 03:39:29;;;;;;;10.25;7.90;;;8.70;95.30;;;;;;7382056;19;20127;-48
2022/04/28 03:42:01;;;;;;;10.82;7.65;;;8.60;95.50;;;;;;7380068;19;20591;-48
2022/04/28 03:44:31;;;;;;;10.07;7.20;;;8.60;95.70;;;;;;7379751;19;20131;-48
2022/04/28 03:47:03;;;;;;;10.38;7.85;;;8.60;95.70;;;;;;7381464;19;20124;-48
2022/04/28 03:49:33;;;;;;;10.32;7.43;;;8.60;95.60;;;;;;7381153;19;20132;-48
2022/04/28 03:52:05;;;;;;;11.30;7.47;;;8.50;96.00;;;;;;7380215;19;20146;-48
2022/04/28 03:54:39;;;;;;;9.80;7.45;;;8.60;95.60;;;;;;7379865;19;20606;-48
2022/04/28 03:57:14;;;;;;;11.25;8.30;;;8.60;95.50;;;;;;7380532;19;20132;-48
2022/04/28 03:59:43;;;;;;;11.00;8.27;;;8.50;95.90;;;;;;7379908;19;20127;-48
2022/04/28 04:02:39;;;;;;;11.57;8.55;;;8.60;95.60;;;;;;7382106;19;20144;-48
2022/04/28 04:05:10;;;;;;;12.15;8.57;;;8.50;95.80;;;;;;7380115;19;20144;-48
2022/04/28 04:07:43;;;;;;;17.65;10.45;;;8.40;96.20;;;;;;7380079;19;20610;-48
2022/04/28 04:10:47;;;;;;;22.25;13.25;;;8.40;96.10;;;;;;7380978;19;20222;-48
2022/04/28 04:13:19;;;;;;;14.00;9.90;;;8.40;96.00;;;;;;7379444;19;20195;-48
2022/04/28 04:15:53;;;;;;;18.83;10.75;;;8.50;95.90;;;;;;7377177;19;20166;-48
2022/04/28 04:18:28;;;;;;;16.10;10.80;;;8.40;95.70;;;;;;7379659;19;20163;-48
2022/04/28 04:21:07;;;;;;;22.92;14.63;;;8.50;96.10;;;;;;7378388;19;20124;-48
2022/04/28 04:23:39;;;;;;;18.80;12.93;;;8.50;96.00;;;;;;7377655;19;20521;-49
2022/04/28 04:26:12;;;;;;;16.65;11.23;;;8.50;96.00;;;;;;7377968;19;20521;-48
2022/04/28 04:28:47;;;;;;;12.15;9.43;;;8.60;95.80;;;;;;7378613;19;20212;-48
2022/04/28 04:34:51;;;;;;;13.45;8.70;;;8.40;96.00;;;;;;7378359;19;20696;-48
2022/04/28 04:37:24;;;;;;;15.40;9.68;;;8.40;96.00;;;;;;7376325;19;20143;-50
2022/04/28 04:39:55;;;;;;;13.00;9.50;;;8.50;96.30;;;;;;7379271;19;20166;-48
2022/04/28 04:42:27;;;;;;;13.90;10.20;;;8.50;96.10;;;;;;7379286;19;20147;-48
2022/04/28 04:45:04;;;;;;;12.27;9.27;;;8.50;96.10;;;;;;7377187;19;20165;-48
2022/04/28 04:47:47;;;;;;;14.00;10.15;;;8.40;96.30;;;;;;7375244;19;20159;-48
2022/04/28 04:50:21;;;;;;;13.45;9.50;;;8.40;96.50;;;;;;7379490;19;20484;-48
2022/04/28 04:53:11;;;;;;;13.00;9.68;;;8.50;96.20;;;;;;7380835;19;20154;-48
2022/04/28 04:55:42;;;;;;;14.00;10.88;;;8.50;96.60;;;;;;7374097;19;20143;-48
2022/04/28 04:58:14;;;;;;;15.15;9.55;;;8.50;96.80;;;;;;7377943;19;20583;-48
2022/04/28 05:00:46;;;;;;;16.30;11.02;;;8.50;97.00;;;;;;7378305;19;20587;-48
2022/04/28 05:03:36;;;;;;;15.52;11.23;;;8.60;96.90;;;;;;7376417;19;20143;-48
2022/04/28 05:06:35;;;;;;;15.52;10.40;;;8.50;97.00;;;;;;7378199;19;20163;-47
2022/04/28 05:09:17;;;;;;;13.40;10.65;;;8.50;96.80;;;;;;7379104;19;21438;-48
2022/04/28 05:11:49;;;;;;;16.38;10.95;;;8.60;96.70;;;;;;7378655;19;20131;-48
2022/04/28 05:14:34;;;;;;;14.45;10.05;;;8.70;96.50;;;;;;7376136;19;20150;-48
2022/04/28 05:17:06;;;;;;;15.80;12.23;;;8.70;96.60;;;;;;7378857;19;20601;-48
2022/04/28 05:19:56;;;;;;;19.48;10.82;;;8.80;96.30;;;;;;7377702;19;20132;-48
2022/04/28 05:22:44;;;;;;;14.02;9.68;;;8.80;96.20;;;;;;7379321;19;20168;-49
2022/04/28 05:25:33;;;;;;;14.93;10.38;;;8.90;96.10;;;;;;7377841;19;20680;-48
2022/04/28 05:28:41;;;;;;;14.02;10.32;;;8.90;96.00;;;;;;7375355;19;20160;-49
2022/04/28 05:31:31;;;;;;;16.20;10.45;;;9.00;95.90;;;;;;7368885;19;20139;-48
2022/04/28 05:34:22;;;;;;;16.40;11.75;;;9.00;95.70;;;;;;7376725;19;20148;-48
2022/04/28 05:36:59;;;;;;;19.13;10.95;;;9.00;95.90;;;;;;7376771;19;20481;-48
2022/04/28 05:39:30;;;;;;;13.82;10.40;;;9.20;95.90;;;;;;7377271;19;20136;-50
2022/04/28 05:42:04;;;;;;;15.18;10.60;;;9.10;96.20;;;;;;7374855;19;20131;-48
2022/04/28 05:47:24;;;;;;;15.75;10.23;;;9.20;96.50;;;;;;7377236;19;20132;-49
2022/04/28 05:49:58;;;;;;;13.23;9.73;;;9.30;96.40;;;;;;7376396;19;20132;-49
2022/04/28 05:52:32;;;;;;;16.63;10.48;;;9.50;95.90;;;;;;7376236;19;20478;-48
2022/04/28 05:55:04;;;;;;;17.83;11.32;;;9.80;95.20;;;;;;7373449;19;20613;-48
2022/04/28 05:57:36;;;;;;;11.10;8.75;;;9.90;94.80;;;;;;7375925;19;20146;-48
2022/04/28 06:00:06;;;;;;;13.57;10.60;;;10.00;93.90;;;;;;7374522;19;20137;-48
2022/04/28 06:02:44;;;;;;;12.60;9.63;;;10.00;93.60;;;;;;7375820;19;20613;-51
2022/04/28 06:05:32;;;;;;;18.52;11.95;;;10.10;93.70;;;;;;7374722;19;20470;-48
2022/04/28 06:08:06;;;;;;;17.10;10.32;;;10.30;93.20;;;;;;7375225;19;20139;-48
2022/04/28 06:10:38;;;;;;;17.40;11.95;;;10.30;93.20;;;;;;7376485;19;20139;-48
2022/04/28 06:13:10;;;;;;;14.07;11.25;;;10.40;93.30;;;;;;7375405;19;20617;-48
2022/04/28 06:15:59;;;;;;;13.57;11.10;;;10.60;93.40;;;;;;7376463;19;20128;-48
2022/04/28 06:18:30;;;;;;;14.07;11.07;;;10.70;93.50;;;;;;7376393;19;20151;-48
2022/04/28 06:21:12;;;;;;;12.03;9.70;;;10.80;92.90;;;;;;7377469;19;21013;-48
2022/04/28 06:23:47;;;;;;;16.92;10.95;;;10.90;92.20;;;;;;7372921;19;20398;-48
2022/04/28 06:26:17;;;;;;;13.17;10.10;;;11.10;91.40;;;;;;7376396;19;20148;-48
2022/04/28 06:28:49;;;;;;;12.10;9.53;;;11.30;90.70;;;;;;7374788;19;21050;-49
2022/04/28 06:31:19;;;;;;;11.70;9.13;;;11.50;90.30;;;;;;7375073;19;20392;-49
2022/04/28 06:34:06;;;;;;;12.47;9.70;;;11.70;89.50;;;;;;7374887;19;20898;-49
2022/04/28 06:36:43;;;;;;;15.70;10.30;;;11.90;88.40;;;;;;7373730;19;20384;-50
2022/04/28 06:39:15;;;;;;;10.63;9.40;;;12.10;86.90;;;;;;7375518;19;20411;-49
2022/04/28 06:41:47;;;;;;;13.30;9.80;;;12.20;86.20;;;;;;7376255;19;20379;-49
2022/04/28 06:44:39;;;;;;;19.10;12.27;;;12.30;86.30;;;;;;7374626;19;20380;-49
2022/04/28 06:47:27;;;;;;;18.87;10.97;;;12.40;84.90;;;;;;7374818;19;20423;-49
2022/04/28 06:50:15;;;;;;;15.60;10.13;;;12.50;83.80;;;;;;7375779;19;20799;-48
2022/04/28 06:53:08;;;;;;;15.10;10.20;;;12.70;83.50;;;;;;7375397;19;20399;-49
2022/04/28 06:55:39;;;;;;;14.50;10.73;;;12.90;82.10;;;;;;7373925;19;20972;-49
2022/04/28 06:58:11;;;;;;;11.20;9.97;;;13.10;81.50;;;;;;7372688;19;20440;-49
2022/04/28 07:00:44;;;;;;;11.27;8.30;;;13.30;80.00;;;;;;7373438;19;21074;-49
2022/04/28 07:03:14;;;;;;;12.13;9.80;;;13.50;78.70;;;;;;7375419;19;20383;-49
2022/04/28 07:05:46;;;;;;;14.23;8.60;;;13.50;78.30;;;;;;7373609;19;20849;-49
2022/04/28 07:08:20;;;;;;;10.50;8.93;;;13.60;78.20;;;;;;7373423;19;20420;-49
2022/04/28 07:10:54;;;;;;;15.37;9.30;;;13.80;77.80;;;;;;7377307;19;20944;-49
2022/04/28 07:13:26;;;;;;;11.47;8.10;;;14.00;74.90;;;;;;7379987;19;20364;-49
2022/04/28 07:16:07;;;;;;;10.87;7.77;;;14.10;74.80;;;;;;7380715;19;20415;-50
2022/04/28 07:18:57;;;;;;;10.27;8.40;;;14.30;74.40;;;;;;7382035;19;20434;-49
2022/04/28 07:21:29;;;;;;;9.70;8.23;;;14.50;72.70;;;;;;7381348;19;20778;-49
2022/04/28 07:24:02;;;;;;;10.03;7.60;;;14.70;70.60;;;;;;7374394;19;20940;-49
2022/04/28 07:26:34;;;;;;;9.20;7.10;;;14.90;69.10;;;;;;7381963;19;20411;-49
2022/04/28 07:29:08;;;;;;;9.20;7.07;;;15.10;68.10;;;;;;7379477;19;20917;-48
2022/04/28 07:32:10;;;;;;;9.03;7.27;;;15.20;65.00;;;;;;7378649;19;20416;-46
2022/04/28 07:35:11;;;;;;;7.57;6.80;;;15.40;64.60;;;;;;7378905;19;21099;-49
2022/04/28 07:38:00;;;;;;;10.03;6.60;;;15.60;62.70;;;;;;7383180;19;20492;-47
2022/04/28 07:40:47;;;;;;;19.00;13.60;;;15.70;61.40;;;;;;7380562;19;20408;-47
2022/04/28 07:43:20;;;;;;;12.40;8.87;;;15.80;61.30;;;;;;7379696;19;20407;-48
2022/04/28 07:45:50;;;;;;;10.87;8.20;;;15.90;61.10;;;;;;7384514;19;20732;-48
2022/04/28 07:48:21;;;;;;;10.30;7.70;;;16.00;61.80;;;;;;7381213;19;20412;-48
2022/04/28 07:50:50;;;;;;;9.30;7.17;;;16.30;60.10;;;;;;7382085;19;20412;-48
2022/04/28 07:53:26;;;;;;;8.83;6.80;;;16.50;59.70;;;;;;7378926;19;20400;-47
2022/04/28 07:56:14;;;;;;;7.70;7.00;;;16.70;58.90;;;;;;7379965;19;21026;-48
2022/04/28 07:58:47;;;;;;;8.50;7.30;;;16.90;58.20;;;;;;7379098;19;20408;-49
2022/04/28 08:01:33;;;;;;;9.13;7.47;;;17.10;57.60;;;;;;7378691;19;20380;-47
2022/04/28 08:04:03;;;;;;;10.30;7.00;;;17.40;57.10;;;;;;7381114;19;20372;-48
2022/04/28 08:06:37;;;;;;;7.40;6.50;;;17.50;56.90;;;;;;7380107;19;20447;-47
2022/04/28 08:09:07;;;;;;;7.10;6.40;;;17.80;55.90;;;;;;7380242;19;20969;-48
2022/04/28 08:11:41;;;;;;;6.53;6.00;;;17.80;55.20;;;;;;7379079;19;20401;-47
2022/04/28 08:14:11;;;;;;;6.90;6.20;;;18.00;54.80;;;;;;7379184;19;20395;-47
2022/04/28 08:16:42;;;;;;;8.47;5.50;;;18.10;53.60;;;;;;7377051;19;20400;-48
2022/04/28 08:19:13;;;;;;;7.00;5.23;;;18.40;53.70;;;;;;7377131;19;20432;-48
2022/04/28 08:21:51;;;;;;;7.30;5.33;;;18.50;52.90;;;;;;7377428;19;20394;-47
2022/04/28 08:24:23;;;;;;;6.40;4.90;;;18.60;51.00;;;;;;7379483;19;20392;-48
2022/04/28 08:26:55;;;;;;;7.63;5.10;;;18.70;50.90;;;;;;7380412;19;21007;-48
2022/04/28 08:29:26;;;;;;;7.83;4.80;;;18.90;50.80;;;;;;7377594;19;20767;-48
2022/04/28 08:32:02;;;;;;;6.70;4.87;;;19.20;49.80;;;;;;7380809;19;21167;-48
2022/04/28 08:34:36;;;;;;;5.60;4.43;;;19.30;49.30;;;;;;7379936;19;20388;-48
2022/04/28 08:37:05;;;;;;;5.07;4.50;;;19.70;48.80;;;;;;7378757;19;20377;-47
2022/04/28 08:39:36;;;;;;;5.37;4.10;;;20.00;46.20;;;;;;7378514;19;20375;-48
2022/04/28 08:42:12;;;;;;;4.30;3.90;;;20.10;44.70;;;;;;7380769;19;20763;-48
2022/04/28 08:45:07;;;;;;;4.80;4.00;;;20.20;45.20;;;;;;7377073;19;20409;-47
2022/04/28 08:48:01;;;;;;;5.17;4.20;;;20.70;44.50;;;;;;7379823;19;20416;-47
2022/04/28 08:50:52;;;;;;;4.50;3.80;;;21.10;43.30;;;;;;7379600;19;20437;-48
2022/04/28 08:53:22;;;;;;;3.80;3.37;;;21.40;43.40;;;;;;7378512;19;20372;-48
2022/04/28 08:55:51;;;;;;;4.20;3.80;;;21.80;42.70;;;;;;7376080;19;20390;-48
2022/04/28 08:58:26;;;;;;;4.73;4.10;;;22.10;42.30;;;;;;7379403;19;21033;-48
2022/04/28 09:00:57;;;;;;;8.13;4.80;;;22.70;41.50;;;;;;7376274;19;20746;-48
2022/04/28 09:03:29;;;;;;;5.10;4.57;;;22.90;39.40;;;;;;7380792;19;20400;-48
2022/04/28 09:06:38;;;;;;;3.90;3.53;;;23.10;39.10;;;;;;7377447;19;20400;-48
2022/04/28 09:09:47;;;;;;;5.33;4.17;;;23.40;38.50;;;;;;7378122;19;20404;-48
2022/04/28 09:12:57;;;;;;;4.83;3.97;;;23.80;37.50;;;;;;7378282;19;20392;-48
2022/04/28 09:15:47;;;;;;;3.97;3.57;;;24.30;35.20;;;;;;7376007;19;20368;-45
2022/04/28 09:18:25;;;;;;;5.03;3.77;;;24.50;35.10;;;;;;7376013;19;20443;-47
2022/04/28 09:20:55;;;;;;;3.83;2.97;;;24.00;33.70;;;;;;7380198;19;20926;-48
2022/04/28 09:23:24;;;;;;;3.87;3.47;;;24.30;35.10;;;;;;7377504;19;20388;-47
2022/04/28 09:25:57;;;;;;;3.63;3.33;;;25.00;32.30;;;;;;7375701;19;20468;-48
2022/04/28 09:28:27;;;;;;;4.10;3.53;;;25.00;31.30;;;;;;7377401;19;20869;-49
2022/04/28 09:31:01;;;;;;;4.00;3.70;;;25.30;31.10;;;;;;7374991;19;20454;-47
2022/04/28 09:33:42;;;;;;;4.80;4.00;;;25.00;30.90;;;;;;7377581;19;21988;-47
2022/04/28 09:36:12;;;;;;;5.10;4.00;;;24.60;30.50;;;;;;7375093;19;20396;-50
2022/04/28 09:38:57;;;;;;;3.20;3.00;;;24.00;31.70;;;;;;7378820;19;20404;-48
2022/04/28 09:44:27;;;;;;;3.40;2.57;;;22.20;31.50;;;;;;7375490;19;20835;-47
2022/04/28 09:47:07;;;;;;;4.90;3.00;;;22.20;32.40;;;;;;7378154;19;20396;-47
2022/04/28 09:49:37;;;;;;;3.77;3.43;;;22.20;32.10;;;;;;7376306;19;20917;-47
2022/04/28 09:52:21;;;;;;;6.10;3.23;;;22.10;32.90;;;;;;7377793;19;20460;-48
2022/04/28 09:55:30;;;;;;;4.37;3.97;;;22.10;33.10;;;;;;7379617;19;20391;-47
2022/04/28 09:58:20;;;;;;;3.23;2.40;;;22.40;33.20;;;;;;7378991;19;20950;-49
2022/04/28 10:00:49;;;;;;;3.17;2.87;;;22.50;30.90;;;;;;7374231;19;20416;-48
2022/04/28 10:03:26;;;;;;;3.53;2.53;;;22.40;32.10;;;;;;7378325;19;20380;-48
2022/04/28 10:05:57;;;;;;;3.03;2.67;;;23.00;32.00;;;;;;7376277;19;20384;-48
2022/04/28 10:08:47;;;;;;;3.13;2.83;;;23.90;30.10;;;;;;7377289;19;20396;-48
2022/04/28 10:11:23;;;;;;;3.10;2.70;;;25.50;29.40;;;;;;7377464;19;20379;-48
2022/04/28 10:13:57;;;;;;;2.97;2.60;;;26.70;27.80;;;;;;7377150;19;20376;-48
2022/04/28 10:16:28;;;;;;;4.13;3.40;;;27.30;26.10;;;;;;7375075;19;20773;-47
2022/04/28 10:19:06;;;;;;;2.97;2.73;;;28.30;26.00;;;;;;7375774;19;20428;-47
2022/04/28 10:21:44;;;;;;;3.90;3.50;;;29.00;24.10;;;;;;7374569;19;20763;-48
2022/04/28 10:32:58;;;;;;;4.30;2.60;;;29.70;22.70;;;;;;7373623;19;20372;-48
2022/04/28 10:36:01;;;;;;;2.90;2.33;;;30.10;23.10;;;;;;7372429;19;20388;-48
2022/04/28 10:38:34;;;;;;;3.67;2.90;;;30.40;22.30;;;;;;7376370;19;20984;-46
2022/04/28 10:41:05;;;;;;;2.77;2.57;;;31.00;22.40;;;;;;7377467;19;20365;-47
2022/04/28 10:43:40;;;;;;;3.70;2.73;;;31.80;21.50;;;;;;7375040;19;20535;-47
2022/04/28 10:46:34;;;;;;;3.00;2.80;;;32.00;21.20;;;;;;7374333;19;20764;-48
2022/04/28 10:49:06;;;;;;;3.53;2.63;;;32.40;20.20;;;;;;7376829;19;20424;-47
2022/04/28 10:51:38;;;;;;;2.83;2.63;;;31.70;20.50;;;;;;7374530;19;20781;-40
2022/04/28 10:54:14;;;;;;;3.47;3.17;;;31.50;21.80;;;;;;7372271;19;20404;-41
2022/04/28 10:57:01;;;;;;;2.83;2.53;;;32.40;20.90;;;;;;7374117;19;20439;-41
2022/04/28 10:59:38;;;;;;;2.87;2.33;;;32.90;20.20;;;;;;7372046;19;20372;-41
2022/04/28 11:02:51;;;;;;;2.43;2.23;;;33.50;19.60;;;;;;7374615;19;20421;-41
2022/04/28 11:05:37;;;;;;;3.80;2.90;;;33.60;19.80;;;;;;7374315;19;20380;-41
2022/04/28 11:08:24;;;;;;;2.70;2.30;;;34.10;19.20;;;;;;7373486;19;20372;-42
2022/04/28 11:11:14;;;;;;;2.40;2.20;;;34.30;18.80;;;;;;7376282;19;20740;-42
2022/04/28 11:13:53;;;;;;;2.73;2.53;;;34.50;19.60;;;;;;7372050;19;20372;-42
2022/04/28 11:16:23;;;;;;;2.40;2.20;;;34.50;18.40;;;;;;7371797;19;20396;-41
2022/04/28 11:18:53;;;;;;;6.03;2.43;;;34.60;18.50;;;;;;7373624;19;20451;-42
2022/04/28 11:21:23;;;;;;;3.40;2.50;;;35.30;18.70;;;;;;7373749;19;21066;-49
2022/04/28 11:23:58;;;;;;;2.50;2.27;;;35.60;17.90;;;;;;7372206;19;20388;-49
2022/04/28 11:26:32;;;;;;;4.33;2.43;;;35.70;17.90;;;;;;7372911;19;20376;-48
2022/04/28 11:29:22;;;;;;;2.97;2.50;;;35.30;17.90;;;;;;7370946;19;21287;-48
2022/04/28 11:31:53;;;;;;;4.03;2.60;;;36.10;18.00;;;;;;7374132;19;20379;-48
2022/04/28 11:34:24;;;;;;;5.90;2.17;;;36.30;17.40;;;;;;7374722;19;20372;-49
2022/04/28 11:36:54;;;;;;;4.23;2.60;;;36.20;17.30;;;;;;7372977;19;20380;-49
2022/04/28 11:39:36;;;;;;;3.50;2.57;;;36.10;17.30;;;;;;7373004;19;20965;-49
2022/04/28 11:42:12;;;;;;;2.50;2.27;;;36.10;17.20;;;;;;7371563;19;20799;-47
2022/04/28 11:44:47;;;;;;;3.00;2.30;;;35.90;17.90;;;;;;7373349;19;20481;-48
2022/04/28 11:47:19;;;;;;;2.83;2.53;;;34.90;18.40;;;;;;7374541;19;20379;-48
2022/04/28 11:49:50;;;;;;;2.77;2.40;;;35.40;17.60;;;;;;7374613;19;20735;-48
2022/04/28 11:52:23;;;;;;;3.00;2.53;;;35.10;18.50;;;;;;7373776;19;20380;-48
2022/04/28 11:55:00;;;;;;;2.40;2.20;;;34.80;17.60;;;;;;7374275;19;20516;-48
2022/04/28 11:57:30;;;;;;;2.97;2.43;;;35.20;17.80;;;;;;7379115;19;20376;-48
2022/04/28 12:00:03;;;;;;;2.50;2.17;;;35.50;17.60;;;;;;7380449;19;20380;-48
2022/04/28 12:02:43;;;;;;;2.97;2.67;;;35.60;17.50;;;;;;7382530;19;20451;-48
2022/04/28 12:05:19;;;;;;;2.50;2.27;;;35.10;17.00;;;;;;7381856;19;20737;-47
2022/04/28 12:07:51;;;;;;;2.43;2.23;;;35.00;17.60;;;;;;7382212;19;20380;-48
2022/04/28 12:16:04;;;;;;;5.30;2.07;;;36.00;17.00;;;;;;7381934;19;20379;-48
2022/04/28 12:21:24;;;;;;;3.50;2.07;;;35.80;17.40;;;;;;7381484;19;20380;-48
2022/04/28 12:23:55;;;;;;;3.17;2.70;;;35.90;17.00;;;;;;7379327;19;20433;-48
2022/04/28 12:26:29;;;;;;;4.33;2.37;;;36.10;17.40;;;;;;7378608;19;21987;-48
2022/04/28 12:29:10;;;;;;;2.83;2.43;;;36.70;16.80;;;;;;7379984;19;20391;-48
2022/04/28 12:31:46;;;;;;;2.27;2.00;;;36.50;16.80;;;;;;7381328;19;20379;-49
2022/04/28 12:34:19;;;;;;;2.30;2.10;;;36.80;16.50;;;;;;7380607;19;20387;-48
2022/04/28 12:36:54;;;;;;;4.63;2.43;;;36.90;16.20;;;;;;7376932;19;20372;-48
2022/04/28 12:39:26;;;;;;;2.60;2.40;;;35.50;16.80;;;;;;7378828;19;20384;-48
2022/04/28 12:41:58;;;;;;;2.80;2.50;;;35.20;17.40;;;;;;7380714;19;20739;-48
2022/04/28 12:44:27;;;;;;;2.47;2.20;;;35.80;16.90;;;;;;7380352;19;20385;-48
2022/04/28 12:47:09;;;;;;;2.50;2.30;;;36.10;17.30;;;;;;7379412;19;20406;-48
2022/04/28 12:49:48;;;;;;;4.00;2.30;;;36.80;16.50;;;;;;7380488;19;20420;-48
2022/04/28 12:52:30;;;;;;;2.20;2.00;;;36.80;16.40;;;;;;7381254;19;20375;-48
2022/04/28 12:55:07;;;;;;;2.80;2.03;;;36.60;16.20;;;;;;7379124;19;20379;-48
2022/04/28 12:57:40;;;;;;;5.93;2.37;;;36.10;16.80;;;;;;7376469;19;20455;-48
2022/04/28 13:00:11;;;;;;;2.97;2.20;;;35.30;16.80;;;;;;7378013;19;20397;-39
2022/04/28 13:02:46;;;;;;;3.73;2.20;;;35.00;16.60;;;;;;7379780;19;20368;-39
2022/04/28 13:05:18;;;;;;;3.50;2.20;;;34.60;17.20;;;;;;7378367;19;20380;-39
2022/04/28 13:07:48;;;;;;;2.23;2.03;;;34.60;17.60;;;;;;7375669;19;20399;-42
2022/04/28 13:10:17;;;;;;;2.27;2.07;;;34.90;17.40;;;;;;7376625;19;20793;-42
2022/04/28 13:12:52;;;;;;;2.10;1.90;;;35.30;16.90;;;;;;7379756;19;20379;-42
2022/04/28 13:15:21;;;;;;;3.00;2.20;;;35.60;16.80;;;;;;7378921;19;20380;-39
2022/04/28 13:17:50;;;;;;;4.37;2.47;;;35.20;17.10;;;;;;7353062;19;20504;-39
2022/04/28 13:20:20;;;;;;;3.30;3.00;;;34.80;17.00;;;;;;7380751;19;20407;-41
2022/04/28 13:22:52;;;;;;;2.90;2.53;;;33.80;17.40;;;;;;7377397;19;20481;-40
2022/04/28 13:25:21;;;;;;;3.30;2.53;;;32.80;18.60;;;;;;7379892;19;20423;-41
2022/04/28 13:27:53;;;;;;;3.03;2.43;;;31.80;19.80;;;;;;7376851;19;20440;-40
2022/04/28 13:30:23;;;;;;;2.60;2.20;;;30.60;20.00;;;;;;7378800;19;21134;-47
2022/04/28 13:32:52;;;;;;;3.43;2.53;;;29.50;20.90;;;;;;7379092;19;20372;-47
2022/04/28 13:35:25;;;;;;;3.00;2.10;;;28.50;21.40;;;;;;7377736;19;20933;-48
2022/04/28 13:37:57;;;;;;;2.93;2.63;;;27.80;22.20;;;;;;7376173;19;20804;-46
2022/04/28 13:40:31;;;;;;;2.40;2.10;;;27.30;22.70;;;;;;7379541;19;20399;-47
2022/04/28 13:43:03;;;;;;;3.20;2.90;;;26.90;23.10;;;;;;7376229;19;20411;-45
2022/04/28 13:45:32;;;;;;;5.40;2.00;;;26.40;23.10;;;;;;7379624;19;20808;-47
2022/04/28 13:48:02;;;;;;;2.27;2.07;;;25.90;23.00;;;;;;7379724;19;21315;-46
2022/04/28 13:50:31;;;;;;;2.93;2.10;;;25.60;24.20;;;;;;7380179;19;20790;-47
2022/04/28 13:53:03;;;;;;;5.40;2.90;;;25.30;24.40;;;;;;7377025;19;20919;-46
2022/04/28 13:55:33;;;;;;;3.13;2.87;;;25.30;24.80;;;;;;7375254;19;20423;-46
2022/04/28 13:58:05;;;;;;;3.10;2.70;;;25.20;24.50;;;;;;7375403;19;20977;-46
2022/04/28 14:00:35;;;;;;;5.03;2.97;;;25.10;25.70;;;;;;7379190;19;20992;-46
2022/04/28 14:03:05;;;;;;;4.77;4.00;;;24.90;24.70;;;;;;7376006;19;20440;-46
2022/04/28 14:05:34;;;;;;;4.10;2.27;;;24.70;25.30;;;;;;7379307;19;20409;-46
2022/04/28 14:08:03;;;;;;;23.87;5.50;;;24.40;25.90;;;;;;7377864;19;20824;-46
2022/04/28 14:10:33;;;;;;;10.33;4.37;;;24.30;26.30;;;;;;7377184;19;20381;-48